createdAt,value
2023-05-04T00:00:29.676Z,54.10
2023-05-04T00:02:59.205Z,54.00
2023-05-04T00:05:27.449Z,55.20
2023-05-04T00:07:55.739Z,55.80
2023-05-04T00:10:23.871Z,54.10
2023-05-04T00:12:52.334Z,53.20
2023-05-04T00:15:20.489Z,52.90
2023-05-04T00:17:48.592Z,51.80
2023-05-04T00:20:18.902Z,53.00
2023-05-04T00:22:47.056Z,52.30
2023-05-04T00:25:15.406Z,53.30
2023-05-04T00:27:43.535Z,54.00
2023-05-04T00:30:13.067Z,53.40
2023-05-04T00:32:41.191Z,53.90
2023-05-04T00:35:10.288Z,54.50
2023-05-04T00:37:39.750Z,53.80
2023-05-04T00:40:09.770Z,53.50
2023-05-04T00:42:37.849Z,54.00
2023-05-04T00:45:07.124Z,54.40
2023-05-04T00:47:35.235Z,54.90
2023-05-04T00:50:03.943Z,54.80
2023-05-04T00:52:32.779Z,55.20
2023-05-04T00:55:03.417Z,55.40
2023-05-04T00:57:32.022Z,56.00
2023-05-04T01:00:00.229Z,55.60
2023-05-04T01:02:28.387Z,55.90
2023-05-04T01:04:56.576Z,56.00
2023-05-04T01:07:31.040Z,55.70
2023-05-04T01:10:05.416Z,55.60
2023-05-04T01:12:38.971Z,56.50
2023-05-04T01:15:09.214Z,56.50
2023-05-04T01:17:37.523Z,56.80
2023-05-04T01:20:07.376Z,57.40
2023-05-04T01:22:37.961Z,57.60
2023-05-04T01:25:07.816Z,57.90
2023-05-04T01:27:41.355Z,58.10
2023-05-04T01:30:15.904Z,58.10
2023-05-04T01:32:46.883Z,57.50
2023-05-04T01:35:16.526Z,57.50
2023-05-04T01:37:46.094Z,57.20
2023-05-04T01:40:14.275Z,56.70
2023-05-04T01:42:42.336Z,56.80
2023-05-04T01:45:11.807Z,58.90
2023-05-04T01:47:39.975Z,58.40
2023-05-04T01:50:08.736Z,58.40
2023-05-04T01:52:36.977Z,57.90
2023-05-04T01:55:07.241Z,57.90
2023-05-04T01:57:35.351Z,57.70
2023-05-04T02:00:04.901Z,58.30
2023-05-04T02:02:43.648Z,58.00
2023-05-04T02:05:15.264Z,62.70
2023-05-04T02:07:43.843Z,62.30
2023-05-04T02:10:13.670Z,63.20
2023-05-04T02:12:43.199Z,62.10
2023-05-04T02:15:12.293Z,60.50
2023-05-04T02:17:40.522Z,59.40
2023-05-04T02:20:10.205Z,59.40
2023-05-04T02:22:38.328Z,59.80
2023-05-04T02:25:07.622Z,59.40
2023-05-04T02:27:37.148Z,59.20
2023-05-04T02:30:06.529Z,58.70
2023-05-04T02:32:35.030Z,58.90
2023-05-04T02:35:03.331Z,60.10
2023-05-04T02:37:31.467Z,59.20
2023-05-04T02:39:59.663Z,59.60
2023-05-04T02:42:28.523Z,60.20
2023-05-04T02:44:59.320Z,60.80
2023-05-04T02:47:27.528Z,61.20
2023-05-04T02:49:55.673Z,60.90
2023-05-04T02:52:23.827Z,61.10
2023-05-04T02:54:53.186Z,61.20
2023-05-04T02:57:21.602Z,61.00
2023-05-04T02:59:49.784Z,60.30
2023-05-04T03:02:19.342Z,61.70
2023-05-04T03:04:47.559Z,60.60
2023-05-04T03:07:15.757Z,60.80
2023-05-04T03:09:46.007Z,62.60
2023-05-04T03:12:15.656Z,61.90
2023-05-04T03:14:44.202Z,61.10
2023-05-04T03:17:12.668Z,60.80
2023-05-04T03:19:43.803Z,61.10
2023-05-04T03:22:13.057Z,60.80
2023-05-04T03:24:41.241Z,60.60
2023-05-04T03:27:10.103Z,60.20
2023-05-04T03:29:39.537Z,60.50
2023-05-04T03:32:08.137Z,61.70
2023-05-04T03:34:37.177Z,61.40
2023-05-04T03:37:09.114Z,61.20
2023-05-04T03:39:37.325Z,61.40
2023-05-04T03:42:05.660Z,62.90
2023-05-04T03:44:33.874Z,62.20
2023-05-04T03:47:01.940Z,61.70
2023-05-04T03:49:31.063Z,62.70
2023-05-04T03:51:59.291Z,61.00
2023-05-04T03:54:29.073Z,60.70
2023-05-04T03:56:57.509Z,61.00
2023-05-04T03:59:26.323Z,60.80
2023-05-04T04:01:55.038Z,61.20
2023-05-04T04:04:23.392Z,61.60
2023-05-04T04:06:52.528Z,62.00
2023-05-04T04:09:20.953Z,62.50
2023-05-04T04:11:50.465Z,62.90
2023-05-04T04:14:20.188Z,63.00
2023-05-04T04:16:48.331Z,63.10
2023-05-04T04:19:16.413Z,64.30
2023-05-04T04:21:44.556Z,64.20
2023-05-04T04:24:12.612Z,65.10
2023-05-04T04:26:40.718Z,64.20
2023-05-04T04:29:10.283Z,63.40
2023-05-04T04:31:40.454Z,64.10
2023-05-04T04:34:08.705Z,62.50
2023-05-04T04:36:36.955Z,63.60
2023-05-04T04:39:06.083Z,63.90
2023-05-04T04:41:34.227Z,63.80
2023-05-04T04:44:02.383Z,64.00
2023-05-04T04:46:31.953Z,64.70
2023-05-04T04:49:00.112Z,64.80
2023-05-04T04:51:28.237Z,65.60
2023-05-04T04:53:56.700Z,65.00
2023-05-04T04:56:24.796Z,65.60
2023-05-04T04:58:53.407Z,66.50
2023-05-04T05:01:22.000Z,65.90
2023-05-04T05:03:51.619Z,67.50
2023-05-04T05:06:20.759Z,67.90
2023-05-04T05:08:48.994Z,67.60
2023-05-04T05:11:17.261Z,68.50
2023-05-04T05:13:45.525Z,68.30
2023-05-04T05:16:13.634Z,68.50
2023-05-04T05:18:42.350Z,68.50
2023-05-04T05:21:12.521Z,69.10
2023-05-04T05:23:40.645Z,69.20
2023-05-04T05:26:08.994Z,69.30
2023-05-04T05:28:37.170Z,72.60
2023-05-04T05:31:05.394Z,75.50
2023-05-04T05:33:33.796Z,77.30
2023-05-04T05:36:01.969Z,75.30
2023-05-04T05:38:31.501Z,76.10
2023-05-04T05:40:59.632Z,73.90
2023-05-04T05:43:27.774Z,77.50
2023-05-04T05:45:56.282Z,76.50
2023-05-04T05:48:24.771Z,76.20
2023-05-04T05:50:52.893Z,75.70
2023-05-04T05:53:21.071Z,77.40
2023-05-04T05:55:50.646Z,77.30
2023-05-04T05:58:18.777Z,76.40
2023-05-04T06:00:48.118Z,78.10
2023-05-04T06:03:16.206Z,77.50
2023-05-04T06:05:44.428Z,77.00
2023-05-04T06:08:12.708Z,75.80
2023-05-04T06:10:40.923Z,76.50
2023-05-04T06:13:10.587Z,77.50
2023-05-04T06:15:38.705Z,75.20
2023-05-04T06:18:07.018Z,76.50
2023-05-04T06:20:35.154Z,77.40
2023-05-04T06:23:03.260Z,79.20
2023-05-04T06:25:32.177Z,77.60
2023-05-04T06:28:00.275Z,77.10
2023-05-04T06:30:29.854Z,75.60
2023-05-04T06:32:58.096Z,77.20
2023-05-04T06:35:26.268Z,75.80
2023-05-04T06:37:54.454Z,77.20
2023-05-04T06:40:22.528Z,76.40
2023-05-04T06:42:51.022Z,77.60
2023-05-04T06:45:19.360Z,78.10
2023-05-04T06:47:48.993Z,77.00
2023-05-04T06:50:17.607Z,78.80
2023-05-04T06:52:46.376Z,76.70
2023-05-04T06:55:14.911Z,78.50
2023-05-04T06:57:43.030Z,77.40
2023-05-04T07:00:12.749Z,79.10
2023-05-04T07:02:40.952Z,79.10
2023-05-04T07:05:10.933Z,74.80
2023-05-04T07:07:39.622Z,74.20
2023-05-04T07:10:08.692Z,73.70
2023-05-04T07:12:36.946Z,73.40
2023-05-04T07:15:06.750Z,73.70
2023-05-04T07:17:34.970Z,74.70
2023-05-04T07:20:04.740Z,74.50
2023-05-04T07:22:34.915Z,75.50
2023-05-04T07:25:03.096Z,75.00
2023-05-04T07:27:31.340Z,75.10
2023-05-04T07:29:59.496Z,74.20
2023-05-04T07:32:28.032Z,74.70
2023-05-04T07:34:56.402Z,75.20
2023-05-04T07:37:24.602Z,72.80
2023-05-04T07:39:54.369Z,74.40
2023-05-04T07:42:23.600Z,75.60
2023-05-04T07:44:53.409Z,73.20
2023-05-04T07:47:22.498Z,71.80
2023-05-04T07:49:51.333Z,69.20
2023-05-04T07:52:20.147Z,66.60
2023-05-04T07:54:48.223Z,67.20
2023-05-04T07:57:17.718Z,67.60
2023-05-04T07:59:45.907Z,68.60
2023-05-04T08:02:14.113Z,67.80
2023-05-04T08:04:42.188Z,67.50
2023-05-04T08:07:10.580Z,67.40
2023-05-04T08:09:38.679Z,66.80
2023-05-04T08:12:07.721Z,66.60
2023-05-04T08:14:38.430Z,66.40
2023-05-04T08:17:06.603Z,65.80
2023-05-04T08:19:35.057Z,64.00
2023-05-04T08:22:04.005Z,64.80
2023-05-04T08:24:32.195Z,64.40
2023-05-04T08:27:08.054Z,62.90
2023-05-04T08:29:38.594Z,63.30
2023-05-04T08:32:07.552Z,63.00
2023-05-04T08:34:36.731Z,61.70
2023-05-04T08:37:05.110Z,61.00
2023-05-04T08:39:33.198Z,61.20
2023-05-04T08:42:02.260Z,62.50
2023-05-04T08:44:30.849Z,62.10
2023-05-04T08:47:00.383Z,59.10
2023-05-04T08:49:29.184Z,58.60
2023-05-04T08:51:58.637Z,61.00
2023-05-04T08:54:28.224Z,56.00
2023-05-04T08:56:57.075Z,56.50
2023-05-04T08:59:28.570Z,57.40
2023-05-04T09:02:00.314Z,57.50
2023-05-04T09:04:29.762Z,55.90
2023-05-04T09:06:58.648Z,56.50
2023-05-04T09:09:29.605Z,55.70
2023-05-04T09:11:59.366Z,55.50
2023-05-04T09:14:33.707Z,56.50
2023-05-04T09:17:04.057Z,55.60
2023-05-04T09:19:34.759Z,52.50
2023-05-04T09:22:03.582Z,51.80
2023-05-04T09:24:31.981Z,54.30
2023-05-04T09:27:11.075Z,52.10
2023-05-04T09:29:40.758Z,51.10
2023-05-04T09:32:15.172Z,50.80
2023-05-04T09:34:50.720Z,51.00
2023-05-04T09:37:20.851Z,49.30
2023-05-04T09:39:56.322Z,49.10
2023-05-04T09:42:24.931Z,48.60
2023-05-04T09:45:03.986Z,52.20
2023-05-04T09:47:35.276Z,50.90
2023-05-04T09:50:20.178Z,49.90
2023-05-04T09:52:51.065Z,48.00
2023-05-04T09:55:21.142Z,50.20
2023-05-04T09:57:51.204Z,48.90
2023-05-04T10:00:20.328Z,53.60
2023-05-04T10:02:50.834Z,48.60
2023-05-04T10:05:21.809Z,47.60
2023-05-04T10:07:50.824Z,50.20
2023-05-04T10:10:19.149Z,48.70
2023-05-04T10:12:47.347Z,47.50
2023-05-04T10:15:17.010Z,49.20
2023-05-04T10:18:03.491Z,47.30
2023-05-04T10:21:00.700Z,48.00
2023-05-04T10:23:47.016Z,48.90
2023-05-04T10:26:32.070Z,48.10
2023-05-04T10:29:13.751Z,50.70
2023-05-04T10:31:43.007Z,45.20
2023-05-04T10:34:13.056Z,45.60
2023-05-04T10:36:42.352Z,47.00
2023-05-04T10:39:20.560Z,46.60
2023-05-04T10:42:02.848Z,46.60
2023-05-04T10:44:32.617Z,45.40
2023-05-04T10:47:02.694Z,44.40
2023-05-04T10:49:32.874Z,44.20
2023-05-04T10:52:12.611Z,45.60
2023-05-04T10:54:42.087Z,42.80
2023-05-04T10:57:13.757Z,42.90
2023-05-04T10:59:42.429Z,43.20
2023-05-04T11:02:10.677Z,44.00
2023-05-04T11:04:40.337Z,45.50
2023-05-04T11:07:09.010Z,43.30
2023-05-04T11:09:38.778Z,45.00
2023-05-04T11:12:10.449Z,42.00
2023-05-04T11:14:42.595Z,39.40
2023-05-04T11:17:27.436Z,41.80
2023-05-04T11:19:57.977Z,40.40
2023-05-04T11:22:26.236Z,40.70
2023-05-04T11:24:56.122Z,40.80
2023-05-04T11:27:26.080Z,40.30
2023-05-04T11:29:58.447Z,45.30
2023-05-04T11:32:37.975Z,38.30
2023-05-04T11:35:10.588Z,37.70
2023-05-04T11:37:42.930Z,36.60
2023-05-04T11:40:14.278Z,35.90
2023-05-04T11:42:43.753Z,37.40
2023-05-04T11:45:17.905Z,35.50
2023-05-04T11:47:47.156Z,34.30
2023-05-04T11:50:19.011Z,35.00
2023-05-04T11:52:48.023Z,34.80
2023-05-04T11:55:27.482Z,34.70
2023-05-04T11:57:59.616Z,39.70
2023-05-04T12:00:39.912Z,32.30
2023-05-04T12:03:09.402Z,36.40
2023-05-04T12:05:39.003Z,37.10
2023-05-04T12:08:08.856Z,34.90
2023-05-04T12:10:37.136Z,36.60
2023-05-04T12:13:15.935Z,32.40
2023-05-04T12:15:44.415Z,32.50
2023-05-04T12:18:23.106Z,33.90
2023-05-04T12:20:52.859Z,34.60
2023-05-04T12:23:21.000Z,33.30
2023-05-04T12:25:57.803Z,33.80
2023-05-04T12:28:27.801Z,30.60
2023-05-04T12:30:55.970Z,35.50
2023-05-04T12:33:25.364Z,32.10
2023-05-04T12:35:56.197Z,32.30
2023-05-04T12:38:25.670Z,30.60
2023-05-04T12:40:54.301Z,29.90
2023-05-04T12:43:23.073Z,31.50
2023-05-04T12:45:53.570Z,32.20
2023-05-04T12:48:22.331Z,34.60
2023-05-04T12:50:52.139Z,29.70
2023-05-04T12:53:22.339Z,29.40
2023-05-04T12:55:50.544Z,30.50
2023-05-04T12:58:18.682Z,30.40
2023-05-04T13:00:47.085Z,31.40
2023-05-04T13:03:17.514Z,31.90
2023-05-04T13:05:46.422Z,30.00
2023-05-04T13:08:14.540Z,31.90
2023-05-04T13:10:46.144Z,29.70
2023-05-04T13:13:16.225Z,28.60
2023-05-04T13:15:44.657Z,30.40
2023-05-04T13:18:13.621Z,31.60
2023-05-04T13:20:41.714Z,29.00
2023-05-04T13:23:09.774Z,33.70
2023-05-04T13:25:37.940Z,28.90
2023-05-04T13:28:07.463Z,30.00
2023-05-04T13:30:35.643Z,31.80
2023-05-04T13:33:13.344Z,29.60
2023-05-04T13:35:49.547Z,28.60
2023-05-04T13:38:17.885Z,29.80
2023-05-04T13:40:46.036Z,29.40
2023-05-04T13:43:15.516Z,29.80
2023-05-04T13:45:43.647Z,28.70
2023-05-04T13:48:11.971Z,27.90
2023-05-04T13:50:40.132Z,28.80
2023-05-04T13:53:08.266Z,27.60
2023-05-04T13:55:36.321Z,28.30
2023-05-04T13:58:05.139Z,30.40
2023-05-04T14:00:34.965Z,28.50
2023-05-04T14:03:03.333Z,28.40
2023-05-04T14:05:32.110Z,29.50
2023-05-04T14:08:00.267Z,27.30
2023-05-04T14:10:28.569Z,29.40
2023-05-04T14:12:56.769Z,29.90
2023-05-04T14:15:26.891Z,26.60
2023-05-04T14:17:56.640Z,27.10
2023-05-04T14:20:24.797Z,27.80
2023-05-04T14:22:52.943Z,28.50
2023-05-04T14:25:22.363Z,27.50
2023-05-04T14:27:50.518Z,27.30
2023-05-04T14:30:18.690Z,28.10
2023-05-04T14:32:47.093Z,27.30
2023-05-04T14:35:17.448Z,27.60
2023-05-04T14:37:49.283Z,27.70
2023-05-04T14:40:17.723Z,27.90
2023-05-04T14:42:45.870Z,29.00
2023-05-04T14:45:14.222Z,28.20
2023-05-04T14:47:43.161Z,29.10
2023-05-04T14:50:12.299Z,27.10
2023-05-04T14:52:41.886Z,29.10
2023-05-04T14:55:10.914Z,31.90
2023-05-04T14:57:39.116Z,30.20
2023-05-04T15:00:10.290Z,27.40
2023-05-04T15:02:39.211Z,31.90
2023-05-04T15:05:10.239Z,27.50
2023-05-04T15:07:38.694Z,28.10
2023-05-04T15:10:10.607Z,26.30
2023-05-04T15:12:39.586Z,27.60
2023-05-04T15:15:08.964Z,25.30
2023-05-04T15:17:37.178Z,26.20
2023-05-04T15:20:06.350Z,26.70
2023-05-04T15:22:34.872Z,27.00
2023-05-04T15:25:04.061Z,26.00
2023-05-04T15:27:33.573Z,26.70
2023-05-04T15:30:01.769Z,25.40
2023-05-04T15:32:29.873Z,25.60
2023-05-04T15:35:05.374Z,27.80
2023-05-04T15:37:34.601Z,29.50
2023-05-04T15:40:04.573Z,30.70
2023-05-04T15:42:34.440Z,27.60
2023-05-04T15:45:03.065Z,27.20
2023-05-04T15:47:32.024Z,27.80
2023-05-04T15:50:00.430Z,28.10
2023-05-04T15:52:28.515Z,27.80
2023-05-04T15:54:57.240Z,28.30
2023-05-04T15:57:25.401Z,27.50
2023-05-04T15:59:55.840Z,27.30
2023-05-04T16:02:24.394Z,26.50
2023-05-04T16:04:53.600Z,28.20
2023-05-04T16:07:21.942Z,26.40
2023-05-04T16:09:50.258Z,27.20
2023-05-04T16:12:20.464Z,27.80
2023-05-04T16:14:49.005Z,26.10
2023-05-04T16:17:18.689Z,25.60
2023-05-04T16:19:46.988Z,25.00
2023-05-04T16:22:15.265Z,26.50
2023-05-04T16:24:43.467Z,25.20
2023-05-04T16:27:11.775Z,27.00
2023-05-04T16:29:39.855Z,27.30
2023-05-04T16:32:08.515Z,26.20
2023-05-04T16:34:38.478Z,29.30
2023-05-04T16:37:07.435Z,29.50
2023-05-04T16:39:37.658Z,30.50
2023-05-04T16:42:06.231Z,29.40
2023-05-04T16:44:34.441Z,29.60
2023-05-04T16:47:02.714Z,30.90
2023-05-04T16:49:31.205Z,31.70
2023-05-04T16:52:00.678Z,29.80
2023-05-04T16:54:29.023Z,29.70
2023-05-04T16:56:57.157Z,30.70
2023-05-04T16:59:25.200Z,29.00
2023-05-04T17:01:53.416Z,29.30
2023-05-04T17:04:21.510Z,30.10
2023-05-04T17:06:50.583Z,30.40
2023-05-04T17:09:19.977Z,30.90
2023-05-04T17:11:48.179Z,31.10
2023-05-04T17:14:16.305Z,30.10
2023-05-04T17:16:44.357Z,30.60
2023-05-04T17:19:12.445Z,31.40
2023-05-04T17:21:40.927Z,30.90
2023-05-04T17:24:09.320Z,30.20
2023-05-04T17:26:38.933Z,30.30
2023-05-04T17:29:08.278Z,30.00
2023-05-04T17:31:36.539Z,31.90
2023-05-04T17:34:04.786Z,30.60
2023-05-04T17:36:33.287Z,31.40
2023-05-04T17:39:01.462Z,32.40
2023-05-04T17:41:29.848Z,33.00
2023-05-04T17:43:59.464Z,33.60
2023-05-04T17:46:27.812Z,34.50
2023-05-04T17:48:56.635Z,35.00
2023-05-04T17:51:24.802Z,35.60
2023-05-04T17:53:54.103Z,36.40
2023-05-04T17:56:22.281Z,36.90
2023-05-04T17:58:50.692Z,37.30
2023-05-04T18:01:20.847Z,37.30
2023-05-04T18:03:49.205Z,36.80
2023-05-04T18:06:17.519Z,37.40
2023-05-04T18:08:45.884Z,37.20
2023-05-04T18:11:14.008Z,36.30
2023-05-04T18:13:42.130Z,37.20
2023-05-04T18:16:10.503Z,38.30
2023-05-04T18:18:40.606Z,37.90
2023-05-04T18:21:08.726Z,38.40
2023-05-04T18:23:36.822Z,38.50
2023-05-04T18:26:05.174Z,37.80
2023-05-04T18:28:33.292Z,37.90
2023-05-04T18:31:01.384Z,37.10
2023-05-04T18:33:31.372Z,37.40
2023-05-04T18:36:00.904Z,38.10
2023-05-04T18:38:29.037Z,38.90
2023-05-04T18:40:57.189Z,38.90
2023-05-04T18:43:25.478Z,39.10
2023-05-04T18:45:53.624Z,39.20
2023-05-04T18:48:22.290Z,39.40
2023-05-04T18:50:57.212Z,39.20
2023-05-04T18:53:27.166Z,39.40
2023-05-04T18:56:02.716Z,40.60
2023-05-04T18:58:30.937Z,39.30
2023-05-04T19:00:59.302Z,39.00
2023-05-04T19:03:27.555Z,39.70
2023-05-04T19:05:56.422Z,40.60
2023-05-04T19:08:25.918Z,41.40
2023-05-04T19:10:59.116Z,41.90
2023-05-04T19:13:27.311Z,42.10
2023-05-04T19:15:55.540Z,43.30
2023-05-04T19:18:24.609Z,42.80
2023-05-04T19:20:52.797Z,42.80
2023-05-04T19:23:20.911Z,43.10
2023-05-04T19:25:50.403Z,44.00
2023-05-04T19:28:19.050Z,44.20
2023-05-04T19:30:47.118Z,43.80
2023-05-04T19:33:16.680Z,44.30
2023-05-04T19:35:44.812Z,44.00
2023-05-04T19:38:12.957Z,42.90
2023-05-04T19:40:42.860Z,42.60
2023-05-04T19:43:12.472Z,42.70
2023-05-04T19:45:40.910Z,44.00
2023-05-04T19:48:09.248Z,44.30
2023-05-04T19:50:37.473Z,44.00
2023-05-04T19:53:05.669Z,44.40
2023-05-04T19:55:34.175Z,44.30
2023-05-04T19:58:02.341Z,44.40
2023-05-04T20:00:31.918Z,45.00
2023-05-04T20:03:00.549Z,44.60
2023-05-04T20:05:29.098Z,44.90
2023-05-04T20:07:57.554Z,44.20
2023-05-04T20:10:25.725Z,44.20
2023-05-04T20:12:56.606Z,45.30
2023-05-04T20:15:24.833Z,44.20
2023-05-04T20:17:54.472Z,45.00
2023-05-04T20:20:22.639Z,45.00
2023-05-04T20:22:52.841Z,45.10
2023-05-04T20:25:21.380Z,44.80
2023-05-04T20:27:52.286Z,44.20
2023-05-04T20:30:20.512Z,45.30
2023-05-04T20:32:49.390Z,44.90
2023-05-04T20:35:19.148Z,45.30
2023-05-04T20:37:47.821Z,45.20
2023-05-04T20:40:17.155Z,45.70
2023-05-04T20:42:45.477Z,45.60
2023-05-04T20:45:14.011Z,45.90
2023-05-04T20:47:42.677Z,45.70
2023-05-04T20:50:12.024Z,45.80
2023-05-04T20:52:42.566Z,45.70
2023-05-04T20:55:11.314Z,46.70
2023-05-04T20:57:39.604Z,47.00
2023-05-04T21:00:09.385Z,47.80
2023-05-04T21:02:37.972Z,47.00
2023-05-04T21:05:06.988Z,47.10
2023-05-04T21:07:35.109Z,47.80
2023-05-04T21:10:05.073Z,47.70
2023-05-04T21:12:33.279Z,47.70
2023-05-04T21:15:01.378Z,48.40
2023-05-04T21:17:29.555Z,48.90
2023-05-04T21:19:57.986Z,48.40
2023-05-04T21:22:26.180Z,49.70
2023-05-04T21:24:54.457Z,48.70
2023-05-04T21:27:24.096Z,49.10
2023-05-04T21:29:52.342Z,50.00
2023-05-04T21:32:20.856Z,50.50
2023-05-04T21:34:53.179Z,55.10
2023-05-04T21:37:21.506Z,55.20
2023-05-04T21:39:54.514Z,54.60
2023-05-04T21:42:24.289Z,53.20
2023-05-04T21:44:56.055Z,53.10
2023-05-04T21:47:24.755Z,52.80
2023-05-04T21:49:53.384Z,52.20
2023-05-04T21:52:21.917Z,52.20
2023-05-04T21:54:50.637Z,52.60
2023-05-04T21:57:19.308Z,51.90
2023-05-04T21:59:50.295Z,52.30
2023-05-04T22:02:18.785Z,52.00
2023-05-04T22:04:46.890Z,51.20
2023-05-04T22:07:15.614Z,51.90
2023-05-04T22:09:43.891Z,51.40
2023-05-04T22:12:12.060Z,51.90
2023-05-04T22:14:42.299Z,51.80
2023-05-04T22:17:12.164Z,52.10
2023-05-04T22:19:40.697Z,52.30
2023-05-04T22:22:08.869Z,53.50
2023-05-04T22:24:37.635Z,52.80
2023-05-04T22:27:05.963Z,53.30
2023-05-04T22:29:36.084Z,52.90
2023-05-04T22:32:04.807Z,52.90
2023-05-04T22:34:35.450Z,53.10
2023-05-04T22:37:03.985Z,53.10
2023-05-04T22:39:32.117Z,53.60
2023-05-04T22:42:02.104Z,54.00
2023-05-04T22:44:30.277Z,54.10
2023-05-04T22:46:58.583Z,53.90
2023-05-04T22:49:28.232Z,53.60
2023-05-04T22:51:57.739Z,53.80
2023-05-04T22:54:25.884Z,53.70
2023-05-04T22:56:54.105Z,54.50
2023-05-04T22:59:22.303Z,54.50
2023-05-04T23:01:50.703Z,54.30
2023-05-04T23:04:18.904Z,54.80
2023-05-04T23:06:47.123Z,54.10
2023-05-04T23:09:17.600Z,55.80
2023-05-04T23:11:46.182Z,56.10
2023-05-04T23:14:14.818Z,55.60
2023-05-04T23:16:43.004Z,55.90
2023-05-04T23:19:11.066Z,55.60
2023-05-04T23:21:39.639Z,55.40
2023-05-04T23:24:07.983Z,55.20
2023-05-04T23:26:38.049Z,56.20
2023-05-04T23:29:06.596Z,55.90
2023-05-04T23:31:34.732Z,56.10
2023-05-04T23:34:02.888Z,55.90
2023-05-04T23:36:30.976Z,55.80
2023-05-04T23:38:59.063Z,56.30
2023-05-04T23:41:27.221Z,56.20
2023-05-04T23:43:59.207Z,56.10
2023-05-04T23:46:27.426Z,56.00
2023-05-04T23:48:56.118Z,56.50
2023-05-04T23:51:24.243Z,56.60
2023-05-04T23:53:52.406Z,56.70
2023-05-04T23:56:20.430Z,57.30
2023-05-04T23:58:48.724Z,56.70
